sensor_id;sensor_type;location;lat;lon;timestamp;temperature;humidity
23207;DHT22;11773;52.570;13.052;2023-03-23T00:01:38;13.40;99.90
23207;DHT22;11773;52.570;13.052;2023-03-23T00:04:07;13.30;99.90
23207;DHT22;11773;52.570;13.052;2023-03-23T00:06:37;13.20;99.90
23207;DHT22;11773;52.570;13.052;2023-03-23T00:09:06;13.10;99.90
23207;DHT22;11773;52.570;13.052;2023-03-23T00:11:35;13.00;99.90
23207;DHT22;11773;52.570;13.052;2023-03-23T00:14:05;13.00;99.90
23207;DHT22;11773;52.570;13.052;2023-03-23T00:16:35;13.00;99.90
23207;DHT22;11773;52.570;13.052;2023-03-23T00:19:07;13.00;99.90
23207;DHT22;11773;52.570;13.052;2023-03-23T00:21:40;13.00;99.90
23207;DHT22;11773;52.570;13.052;2023-03-23T00:24:17;13.00;99.90
23207;DHT22;11773;52.570;13.052;2023-03-23T00:26:48;13.00;99.90
23207;DHT22;11773;52.570;13.052;2023-03-23T00:29:21;13.00;99.90
23207;DHT22;11773;52.570;13.052;2023-03-23T00:31:50;13.00;99.90
23207;DHT22;11773;52.570;13.052;2023-03-23T00:34:22;12.80;99.90
23207;DHT22;11773;52.570;13.052;2023-03-23T00:36:53;12.90;99.90
23207;DHT22;11773;52.570;13.052;2023-03-23T00:39:27;12.80;99.90
23207;DHT22;11773;52.570;13.052;2023-03-23T00:41:56;12.80;99.90
23207;DHT22;11773;52.570;13.052;2023-03-23T00:44:31;12.80;99.90
23207;DHT22;11773;52.570;13.052;2023-03-23T00:47:02;12.90;99.90
23207;DHT22;11773;52.570;13.052;2023-03-23T00:49:30;12.60;99.90
23207;DHT22;11773;52.570;13.052;2023-03-23T00:52:02;12.60;99.90
23207;DHT22;11773;52.570;13.052;2023-03-23T00:54:33;12.70;99.90
23207;DHT22;11773;52.570;13.052;2023-03-23T00:57:03;12.70;99.90
23207;DHT22;11773;52.570;13.052;2023-03-23T00:59:32;12.60;99.90
23207;DHT22;11773;52.570;13.052;2023-03-23T01:02:01;12.70;99.90
23207;DHT22;11773;52.570;13.052;2023-03-23T01:04:30;12.70;99.90
23207;DHT22;11773;52.570;13.052;2023-03-23T01:06:59;12.60;99.90
23207;DHT22;11773;52.570;13.052;2023-03-23T01:12:54;12.50;99.90
23207;DHT22;11773;52.570;13.052;2023-03-23T01:15:23;12.60;99.90
23207;DHT22;11773;52.570;13.052;2023-03-23T01:17:51;12.60;99.90
23207;DHT22;11773;52.570;13.052;2023-03-23T01:20:20;12.50;99.90
23207;DHT22;11773;52.570;13.052;2023-03-23T01:22:48;12.40;99.90
23207;DHT22;11773;52.570;13.052;2023-03-23T01:25:17;12.10;99.90
23207;DHT22;11773;52.570;13.052;2023-03-23T01:27:46;12.30;99.90
23207;DHT22;11773;52.570;13.052;2023-03-23T01:30:14;12.10;99.90
23207;DHT22;11773;52.570;13.052;2023-03-23T01:32:43;12.30;99.90
23207;DHT22;11773;52.570;13.052;2023-03-23T01:35:13;12.30;99.90
23207;DHT22;11773;52.570;13.052;2023-03-23T01:37:42;12.30;99.90
23207;DHT22;11773;52.570;13.052;2023-03-23T01:40:11;12.40;99.90
23207;DHT22;11773;52.570;13.052;2023-03-23T01:42:41;12.30;99.90
23207;DHT22;11773;52.570;13.052;2023-03-23T01:48:01;12.40;99.90
23207;DHT22;11773;52.570;13.052;2023-03-23T01:53:13;12.30;99.90
23207;DHT22;11773;52.570;13.052;2023-03-23T01:55:43;12.40;99.90
23207;DHT22;11773;52.570;13.052;2023-03-23T01:58:16;12.40;99.90
23207;DHT22;11773;52.570;13.052;2023-03-23T02:00:47;12.50;99.90
23207;DHT22;11773;52.570;13.052;2023-03-23T02:03:15;12.50;99.90
23207;DHT22;11773;52.570;13.052;2023-03-23T02:05:45;12.50;99.90
23207;DHT22;11773;52.570;13.052;2023-03-23T02:08:14;12.50;99.90
23207;DHT22;11773;52.570;13.052;2023-03-23T02:10:45;12.50;99.90
23207;DHT22;11773;52.570;13.052;2023-03-23T02:13:13;12.60;99.90
23207;DHT22;11773;52.570;13.052;2023-03-23T02:15:49;12.70;99.90
23207;DHT22;11773;52.570;13.052;2023-03-23T02:18:53;12.60;99.90
23207;DHT22;11773;52.570;13.052;2023-03-23T02:21:47;12.50;99.90
23207;DHT22;11773;52.570;13.052;2023-03-23T02:24:43;12.70;99.90
23207;DHT22;11773;52.570;13.052;2023-03-23T02:33:05;12.60;99.90
23207;DHT22;11773;52.570;13.052;2023-03-23T02:36:05;12.60;99.90
23207;DHT22;11773;52.570;13.052;2023-03-23T02:41:35;12.70;99.90
23207;DHT22;11773;52.570;13.052;2023-03-23T02:44:02;12.60;99.90
23207;DHT22;11773;52.570;13.052;2023-03-23T02:46:32;12.60;99.90
23207;DHT22;11773;52.570;13.052;2023-03-23T02:49:03;12.60;99.90
23207;DHT22;11773;52.570;13.052;2023-03-23T02:51:35;12.70;99.90
23207;DHT22;11773;52.570;13.052;2023-03-23T02:54:06;12.60;99.90
23207;DHT22;11773;52.570;13.052;2023-03-23T02:56:36;12.70;99.90
23207;DHT22;11773;52.570;13.052;2023-03-23T02:59:06;12.70;99.90
23207;DHT22;11773;52.570;13.052;2023-03-23T03:04:13;12.70;99.90
23207;DHT22;11773;52.570;13.052;2023-03-23T03:12:24;12.70;99.90
23207;DHT22;11773;52.570;13.052;2023-03-23T03:15:05;12.70;99.90
23207;DHT22;11773;52.570;13.052;2023-03-23T03:17:45;12.70;99.90
23207;DHT22;11773;52.570;13.052;2023-03-23T03:20:11;12.80;99.90
23207;DHT22;11773;52.570;13.052;2023-03-23T03:22:43;12.80;99.90
23207;DHT22;11773;52.570;13.052;2023-03-23T03:25:15;12.80;99.90
23207;DHT22;11773;52.570;13.052;2023-03-23T03:27:45;12.90;99.90
23207;DHT22;11773;52.570;13.052;2023-03-23T03:30:17;12.80;99.90
23207;DHT22;11773;52.570;13.052;2023-03-23T03:32:53;12.90;99.90
23207;DHT22;11773;52.570;13.052;2023-03-23T03:35:23;12.70;99.90
23207;DHT22;11773;52.570;13.052;2023-03-23T03:37:53;12.70;99.90
23207;DHT22;11773;52.570;13.052;2023-03-23T03:40:23;12.70;99.90
23207;DHT22;11773;52.570;13.052;2023-03-23T03:42:52;12.70;99.90
23207;DHT22;11773;52.570;13.052;2023-03-23T03:45:20;12.60;99.90
23207;DHT22;11773;52.570;13.052;2023-03-23T03:47:49;12.80;99.90
23207;DHT22;11773;52.570;13.052;2023-03-23T03:50:17;12.80;99.90
23207;DHT22;11773;52.570;13.052;2023-03-23T03:52:46;12.70;99.90
23207;DHT22;11773;52.570;13.052;2023-03-23T03:55:15;12.70;99.90
23207;DHT22;11773;52.570;13.052;2023-03-23T03:57:43;12.70;99.90
23207;DHT22;11773;52.570;13.052;2023-03-23T04:00:12;12.80;99.90
23207;DHT22;11773;52.570;13.052;2023-03-23T04:02:46;12.80;99.90
23207;DHT22;11773;52.570;13.052;2023-03-23T04:05:22;12.80;99.90
23207;DHT22;11773;52.570;13.052;2023-03-23T04:07:51;13.00;99.90
23207;DHT22;11773;52.570;13.052;2023-03-23T04:10:20;13.00;99.90
23207;DHT22;11773;52.570;13.052;2023-03-23T04:12:49;13.00;99.90
23207;DHT22;11773;52.570;13.052;2023-03-23T04:15:18;13.00;99.90
23207;DHT22;11773;52.570;13.052;2023-03-23T04:17:46;13.00;99.90
23207;DHT22;11773;52.570;13.052;2023-03-23T04:20:15;13.10;99.90
23207;DHT22;11773;52.570;13.052;2023-03-23T04:22:45;13.10;99.90
23207;DHT22;11773;52.570;13.052;2023-03-23T04:25:18;13.00;99.90
23207;DHT22;11773;52.570;13.052;2023-03-23T04:27:49;12.90;99.90
23207;DHT22;11773;52.570;13.052;2023-03-23T04:30:23;12.90;99.90
23207;DHT22;11773;52.570;13.052;2023-03-23T04:32:53;12.90;99.90
23207;DHT22;11773;52.570;13.052;2023-03-23T04:35:24;12.80;99.90
23207;DHT22;11773;52.570;13.052;2023-03-23T04:37:53;12.80;99.90
23207;DHT22;11773;52.570;13.052;2023-03-23T04:40:23;12.80;99.90
23207;DHT22;11773;52.570;13.052;2023-03-23T04:42:51;12.80;99.90
23207;DHT22;11773;52.570;13.052;2023-03-23T04:45:22;12.90;99.90
23207;DHT22;11773;52.570;13.052;2023-03-23T04:47:51;12.80;99.90
23207;DHT22;11773;52.570;13.052;2023-03-23T04:50:21;12.80;99.90
23207;DHT22;11773;52.570;13.052;2023-03-23T04:52:52;12.80;99.90
23207;DHT22;11773;52.570;13.052;2023-03-23T04:55:24;12.80;99.90
23207;DHT22;11773;52.570;13.052;2023-03-23T04:57:53;12.80;99.90
23207;DHT22;11773;52.570;13.052;2023-03-23T05:00:22;12.90;99.90
23207;DHT22;11773;52.570;13.052;2023-03-23T05:02:52;12.90;99.90
23207;DHT22;11773;52.570;13.052;2023-03-23T05:05:22;12.90;99.90
23207;DHT22;11773;52.570;13.052;2023-03-23T05:07:52;12.80;99.90
23207;DHT22;11773;52.570;13.052;2023-03-23T05:10:21;12.80;99.90
23207;DHT22;11773;52.570;13.052;2023-03-23T05:12:49;12.80;99.90
23207;DHT22;11773;52.570;13.052;2023-03-23T05:15:20;12.80;99.90
23207;DHT22;11773;52.570;13.052;2023-03-23T05:17:55;12.70;99.90
23207;DHT22;11773;52.570;13.052;2023-03-23T05:20:20;12.70;99.90
23207;DHT22;11773;52.570;13.052;2023-03-23T05:22:49;12.80;99.90
23207;DHT22;11773;52.570;13.052;2023-03-23T05:28:10;12.70;99.90
23207;DHT22;11773;52.570;13.052;2023-03-23T05:30:39;12.60;99.90
23207;DHT22;11773;52.570;13.052;2023-03-23T05:33:09;12.70;99.90
23207;DHT22;11773;52.570;13.052;2023-03-23T05:35:38;12.60;99.90
23207;DHT22;11773;52.570;13.052;2023-03-23T05:38:06;12.60;99.90
23207;DHT22;11773;52.570;13.052;2023-03-23T05:40:35;12.60;99.90
23207;DHT22;11773;52.570;13.052;2023-03-23T05:43:04;12.50;99.90
23207;DHT22;11773;52.570;13.052;2023-03-23T05:45:33;12.50;99.90
23207;DHT22;11773;52.570;13.052;2023-03-23T05:48:02;12.70;99.90
23207;DHT22;11773;52.570;13.052;2023-03-23T05:50:30;12.60;99.90
23207;DHT22;11773;52.570;13.052;2023-03-23T05:52:59;12.50;99.90
23207;DHT22;11773;52.570;13.052;2023-03-23T05:55:29;12.50;99.90
23207;DHT22;11773;52.570;13.052;2023-03-23T05:57:59;12.60;99.90
23207;DHT22;11773;52.570;13.052;2023-03-23T06:00:27;12.60;99.90
23207;DHT22;11773;52.570;13.052;2023-03-23T06:02:57;12.50;99.90
23207;DHT22;11773;52.570;13.052;2023-03-23T06:05:27;12.40;99.90
23207;DHT22;11773;52.570;13.052;2023-03-23T06:07:57;12.50;99.90
23207;DHT22;11773;52.570;13.052;2023-03-23T06:10:26;12.50;99.90
23207;DHT22;11773;52.570;13.052;2023-03-23T06:12:55;12.60;99.90
23207;DHT22;11773;52.570;13.052;2023-03-23T06:15:24;12.60;99.90
23207;DHT22;11773;52.570;13.052;2023-03-23T06:17:54;12.50;99.90
23207;DHT22;11773;52.570;13.052;2023-03-23T06:20:24;12.50;99.90
23207;DHT22;11773;52.570;13.052;2023-03-23T06:22:53;12.30;99.90
23207;DHT22;11773;52.570;13.052;2023-03-23T06:25:22;12.40;99.90
23207;DHT22;11773;52.570;13.052;2023-03-23T06:27:51;12.30;99.90
23207;DHT22;11773;52.570;13.052;2023-03-23T06:30:19;12.40;99.90
23207;DHT22;11773;52.570;13.052;2023-03-23T06:32:48;12.40;99.90
23207;DHT22;11773;52.570;13.052;2023-03-23T06:35:17;12.30;99.90
23207;DHT22;11773;52.570;13.052;2023-03-23T06:37:45;12.30;99.90
23207;DHT22;11773;52.570;13.052;2023-03-23T06:40:14;12.30;99.90
23207;DHT22;11773;52.570;13.052;2023-03-23T06:42:44;12.30;99.90
23207;DHT22;11773;52.570;13.052;2023-03-23T06:45:12;12.40;99.90
23207;DHT22;11773;52.570;13.052;2023-03-23T06:47:41;12.20;99.90
23207;DHT22;11773;52.570;13.052;2023-03-23T06:50:10;12.30;99.90
23207;DHT22;11773;52.570;13.052;2023-03-23T06:52:38;12.40;99.90
23207;DHT22;11773;52.570;13.052;2023-03-23T06:55:07;12.40;99.90
23207;DHT22;11773;52.570;13.052;2023-03-23T06:57:36;12.40;99.90
23207;DHT22;11773;52.570;13.052;2023-03-23T07:00:06;12.40;99.90
23207;DHT22;11773;52.570;13.052;2023-03-23T07:02:39;12.40;99.90
23207;DHT22;11773;52.570;13.052;2023-03-23T07:05:09;12.30;99.90
23207;DHT22;11773;52.570;13.052;2023-03-23T07:07:39;12.40;99.90
23207;DHT22;11773;52.570;13.052;2023-03-23T07:10:08;12.40;99.90
23207;DHT22;11773;52.570;13.052;2023-03-23T07:12:38;12.50;99.90
23207;DHT22;11773;52.570;13.052;2023-03-23T07:15:08;12.50;99.90
23207;DHT22;11773;52.570;13.052;2023-03-23T07:17:39;12.40;99.90
23207;DHT22;11773;52.570;13.052;2023-03-23T07:20:09;12.50;99.90
23207;DHT22;11773;52.570;13.052;2023-03-23T07:22:39;12.50;99.90
23207;DHT22;11773;52.570;13.052;2023-03-23T07:25:08;12.50;99.90
23207;DHT22;11773;52.570;13.052;2023-03-23T07:27:37;12.60;99.90
23207;DHT22;11773;52.570;13.052;2023-03-23T07:30:06;12.60;99.90
23207;DHT22;11773;52.570;13.052;2023-03-23T07:32:35;12.60;99.90
23207;DHT22;11773;52.570;13.052;2023-03-23T07:35:04;12.50;99.90
23207;DHT22;11773;52.570;13.052;2023-03-23T07:37:33;12.50;99.90
23207;DHT22;11773;52.570;13.052;2023-03-23T07:40:03;12.60;99.90
23207;DHT22;11773;52.570;13.052;2023-03-23T07:42:34;12.70;99.90
23207;DHT22;11773;52.570;13.052;2023-03-23T07:45:03;12.70;99.90
23207;DHT22;11773;52.570;13.052;2023-03-23T07:47:32;12.90;99.90
23207;DHT22;11773;52.570;13.052;2023-03-23T07:50:00;13.00;99.90
23207;DHT22;11773;52.570;13.052;2023-03-23T07:52:29;13.00;99.90
23207;DHT22;11773;52.570;13.052;2023-03-23T07:54:58;12.80;99.90
23207;DHT22;11773;52.570;13.052;2023-03-23T07:57:29;12.80;99.90
23207;DHT22;11773;52.570;13.052;2023-03-23T07:59:58;12.80;99.90
23207;DHT22;11773;52.570;13.052;2023-03-23T08:02:27;12.70;99.90
23207;DHT22;11773;52.570;13.052;2023-03-23T08:04:58;12.70;99.90
23207;DHT22;11773;52.570;13.052;2023-03-23T08:07:27;12.90;99.90
23207;DHT22;11773;52.570;13.052;2023-03-23T08:09:55;13.00;99.90
23207;DHT22;11773;52.570;13.052;2023-03-23T08:12:24;13.00;99.90
23207;DHT22;11773;52.570;13.052;2023-03-23T08:14:53;12.90;99.90
23207;DHT22;11773;52.570;13.052;2023-03-23T08:17:22;13.00;99.90
23207;DHT22;11773;52.570;13.052;2023-03-23T08:19:50;12.80;99.90
23207;DHT22;11773;52.570;13.052;2023-03-23T08:22:19;12.90;99.90
23207;DHT22;11773;52.570;13.052;2023-03-23T08:24:47;13.00;99.90
23207;DHT22;11773;52.570;13.052;2023-03-23T08:27:16;12.90;99.90
23207;DHT22;11773;52.570;13.052;2023-03-23T08:29:45;13.00;99.90
23207;DHT22;11773;52.570;13.052;2023-03-23T08:32:14;12.90;99.90
23207;DHT22;11773;52.570;13.052;2023-03-23T08:34:43;12.90;99.90
23207;DHT22;11773;52.570;13.052;2023-03-23T08:37:11;13.10;99.90
23207;DHT22;11773;52.570;13.052;2023-03-23T08:39:40;13.20;99.90
23207;DHT22;11773;52.570;13.052;2023-03-23T08:42:09;13.30;99.90
23207;DHT22;11773;52.570;13.052;2023-03-23T08:44:38;13.40;99.90
23207;DHT22;11773;52.570;13.052;2023-03-23T08:47:07;13.40;99.90
23207;DHT22;11773;52.570;13.052;2023-03-23T08:49:36;13.40;99.90
23207;DHT22;11773;52.570;13.052;2023-03-23T08:52:04;13.40;99.90
23207;DHT22;11773;52.570;13.052;2023-03-23T08:54:34;13.30;99.90
23207;DHT22;11773;52.570;13.052;2023-03-23T08:57:02;13.40;99.90
23207;DHT22;11773;52.570;13.052;2023-03-23T08:59:31;13.50;99.90
23207;DHT22;11773;52.570;13.052;2023-03-23T09:01:59;13.40;99.90
23207;DHT22;11773;52.570;13.052;2023-03-23T09:04:28;13.40;99.90
23207;DHT22;11773;52.570;13.052;2023-03-23T09:06:56;13.30;99.90
23207;DHT22;11773;52.570;13.052;2023-03-23T09:09:25;13.40;99.90
23207;DHT22;11773;52.570;13.052;2023-03-23T09:11:54;13.40;99.90
23207;DHT22;11773;52.570;13.052;2023-03-23T09:14:23;13.50;99.90
23207;DHT22;11773;52.570;13.052;2023-03-23T09:16:52;13.60;99.90
23207;DHT22;11773;52.570;13.052;2023-03-23T09:19:20;13.80;99.90
23207;DHT22;11773;52.570;13.052;2023-03-23T09:21:49;13.80;99.90
23207;DHT22;11773;52.570;13.052;2023-03-23T09:24:17;13.90;99.90
23207;DHT22;11773;52.570;13.052;2023-03-23T09:26:46;14.00;99.90
23207;DHT22;11773;52.570;13.052;2023-03-23T09:29:14;14.10;99.90
23207;DHT22;11773;52.570;13.052;2023-03-23T09:31:43;14.30;99.90
23207;DHT22;11773;52.570;13.052;2023-03-23T09:34:14;14.30;99.90
23207;DHT22;11773;52.570;13.052;2023-03-23T09:36:44;14.50;99.90
23207;DHT22;11773;52.570;13.052;2023-03-23T09:39:12;14.50;99.90
23207;DHT22;11773;52.570;13.052;2023-03-23T09:41:47;14.60;99.90
23207;DHT22;11773;52.570;13.052;2023-03-23T09:47:25;14.70;99.90
23207;DHT22;11773;52.570;13.052;2023-03-23T09:50:00;14.80;99.90
23207;DHT22;11773;52.570;13.052;2023-03-23T09:53:00;14.70;99.90
23207;DHT22;11773;52.570;13.052;2023-03-23T09:55:29;14.70;99.90
23207;DHT22;11773;52.570;13.052;2023-03-23T10:01:11;14.70;99.90
23207;DHT22;11773;52.570;13.052;2023-03-23T10:03:44;14.70;99.90
23207;DHT22;11773;52.570;13.052;2023-03-23T10:06:16;14.70;99.90
23207;DHT22;11773;52.570;13.052;2023-03-23T10:08:49;14.60;99.90
23207;DHT22;11773;52.570;13.052;2023-03-23T10:11:36;14.50;99.90
23207;DHT22;11773;52.570;13.052;2023-03-23T10:17:28;14.50;99.90
23207;DHT22;11773;52.570;13.052;2023-03-23T10:20:29;14.60;99.90
23207;DHT22;11773;52.570;13.052;2023-03-23T10:23:14;14.70;99.90
23207;DHT22;11773;52.570;13.052;2023-03-23T10:25:59;14.90;99.90
23207;DHT22;11773;52.570;13.052;2023-03-23T10:28:46;15.00;99.90
23207;DHT22;11773;52.570;13.052;2023-03-23T10:31:34;15.20;99.90
23207;DHT22;11773;52.570;13.052;2023-03-23T10:34:09;15.20;99.90
23207;DHT22;11773;52.570;13.052;2023-03-23T10:37:25;15.30;99.90
23207;DHT22;11773;52.570;13.052;2023-03-23T10:39:21;15.30;99.90
23207;DHT22;11773;52.570;13.052;2023-03-23T10:41:52;15.40;99.90
23207;DHT22;11773;52.570;13.052;2023-03-23T10:44:22;15.40;99.90
23207;DHT22;11773;52.570;13.052;2023-03-23T10:47:08;15.50;99.90
23207;DHT22;11773;52.570;13.052;2023-03-23T10:52:36;15.40;99.90
23207;DHT22;11773;52.570;13.052;2023-03-23T10:55:14;15.40;99.90
23207;DHT22;11773;52.570;13.052;2023-03-23T10:58:03;15.50;99.90
23207;DHT22;11773;52.570;13.052;2023-03-23T11:00:46;15.60;99.90
23207;DHT22;11773;52.570;13.052;2023-03-23T11:05:57;15.50;99.90
23207;DHT22;11773;52.570;13.052;2023-03-23T11:08:35;15.50;99.90
23207;DHT22;11773;52.570;13.052;2023-03-23T11:11:32;15.50;99.90
23207;DHT22;11773;52.570;13.052;2023-03-23T11:14:16;15.60;99.90
23207;DHT22;11773;52.570;13.052;2023-03-23T11:16:56;15.50;99.90
23207;DHT22;11773;52.570;13.052;2023-03-23T11:19:27;15.50;99.90
23207;DHT22;11773;52.570;13.052;2023-03-23T11:24:44;15.70;99.90
23207;DHT22;11773;52.570;13.052;2023-03-23T11:27:15;15.70;99.90
23207;DHT22;11773;52.570;13.052;2023-03-23T11:30:07;15.90;99.90
23207;DHT22;11773;52.570;13.052;2023-03-23T11:32:42;15.80;99.90
23207;DHT22;11773;52.570;13.052;2023-03-23T11:46:23;16.00;99.90
23207;DHT22;11773;52.570;13.052;2023-03-23T11:49:00;16.20;99.90
23207;DHT22;11773;52.570;13.052;2023-03-23T11:51:42;16.20;99.90
23207;DHT22;11773;52.570;13.052;2023-03-23T11:54:41;16.20;99.90
23207;DHT22;11773;52.570;13.052;2023-03-23T11:57:12;16.20;99.90
23207;DHT22;11773;52.570;13.052;2023-03-23T11:59:42;16.10;99.90
23207;DHT22;11773;52.570;13.052;2023-03-23T12:05:30;16.20;99.90
23207;DHT22;11773;52.570;13.052;2023-03-23T12:08:10;16.20;99.90
23207;DHT22;11773;52.570;13.052;2023-03-23T12:11:17;16.10;99.90
23207;DHT22;11773;52.570;13.052;2023-03-23T12:13:56;15.90;99.90
23207;DHT22;11773;52.570;13.052;2023-03-23T12:17:07;15.90;99.90
23207;DHT22;11773;52.570;13.052;2023-03-23T12:19:58;16.10;99.90
23207;DHT22;11773;52.570;13.052;2023-03-23T12:22:49;16.10;99.90
23207;DHT22;11773;52.570;13.052;2023-03-23T12:27:47;16.20;99.90
23207;DHT22;11773;52.570;13.052;2023-03-23T12:30:23;16.10;99.90
23207;DHT22;11773;52.570;13.052;2023-03-23T12:35:43;16.10;99.90
23207;DHT22;11773;52.570;13.052;2023-03-23T12:38:43;16.10;99.90
23207;DHT22;11773;52.570;13.052;2023-03-23T12:44:09;16.20;99.90
23207;DHT22;11773;52.570;13.052;2023-03-23T12:50:16;16.50;99.90
23207;DHT22;11773;52.570;13.052;2023-03-23T12:53:15;16.70;99.90
23207;DHT22;11773;52.570;13.052;2023-03-23T12:56:04;16.80;99.90
23207;DHT22;11773;52.570;13.052;2023-03-23T12:58:47;16.90;99.90
23207;DHT22;11773;52.570;13.052;2023-03-23T13:01:23;16.90;99.90
23207;DHT22;11773;52.570;13.052;2023-03-23T13:04:11;17.00;99.90
23207;DHT22;11773;52.570;13.052;2023-03-23T13:06:44;17.00;99.90
23207;DHT22;11773;52.570;13.052;2023-03-23T13:09:18;17.10;99.90
23207;DHT22;11773;52.570;13.052;2023-03-23T13:11:51;17.20;99.90
23207;DHT22;11773;52.570;13.052;2023-03-23T13:14:34;17.30;99.90
23207;DHT22;11773;52.570;13.052;2023-03-23T13:20:05;17.30;99.90
23207;DHT22;11773;52.570;13.052;2023-03-23T13:23:14;17.10;99.90
23207;DHT22;11773;52.570;13.052;2023-03-23T13:28:23;17.00;99.90
23207;DHT22;11773;52.570;13.052;2023-03-23T13:30:57;17.20;99.90
23207;DHT22;11773;52.570;13.052;2023-03-23T13:33:35;17.40;99.90
23207;DHT22;11773;52.570;13.052;2023-03-23T13:36:12;17.50;99.90
23207;DHT22;11773;52.570;13.052;2023-03-23T13:38:47;17.50;99.90
23207;DHT22;11773;52.570;13.052;2023-03-23T13:41:19;17.60;99.90
23207;DHT22;11773;52.570;13.052;2023-03-23T13:43:49;17.60;99.90
23207;DHT22;11773;52.570;13.052;2023-03-23T13:49:15;17.60;99.90
23207;DHT22;11773;52.570;13.052;2023-03-23T13:51:51;17.40;99.90
23207;DHT22;11773;52.570;13.052;2023-03-23T13:54:47;17.40;99.90
23207;DHT22;11773;52.570;13.052;2023-03-23T13:57:19;17.40;99.90
23207;DHT22;11773;52.570;13.052;2023-03-23T14:00:46;17.30;99.90
23207;DHT22;11773;52.570;13.052;2023-03-23T14:02:32;17.40;99.90
23207;DHT22;11773;52.570;13.052;2023-03-23T14:07:56;17.30;99.90
23207;DHT22;11773;52.570;13.052;2023-03-23T14:11:10;17.10;99.90
23207;DHT22;11773;52.570;13.052;2023-03-23T14:13:28;17.10;99.90
23207;DHT22;11773;52.570;13.052;2023-03-23T14:18:38;17.00;99.90
23207;DHT22;11773;52.570;13.052;2023-03-23T14:21:16;17.10;99.90
23207;DHT22;11773;52.570;13.052;2023-03-23T14:23:47;17.10;99.90
23207;DHT22;11773;52.570;13.052;2023-03-23T14:26:19;17.00;99.90
23207;DHT22;11773;52.570;13.052;2023-03-23T14:28:50;17.00;99.90
23207;DHT22;11773;52.570;13.052;2023-03-23T14:31:25;17.10;99.90
23207;DHT22;11773;52.570;13.052;2023-03-23T14:33:56;17.10;99.90
23207;DHT22;11773;52.570;13.052;2023-03-23T14:36:28;17.30;99.90
23207;DHT22;11773;52.570;13.052;2023-03-23T14:41:34;17.30;99.90
23207;DHT22;11773;52.570;13.052;2023-03-23T14:44:06;17.20;99.90
23207;DHT22;11773;52.570;13.052;2023-03-23T14:46:36;17.10;99.90
23207;DHT22;11773;52.570;13.052;2023-03-23T14:49:05;17.30;99.90
23207;DHT22;11773;52.570;13.052;2023-03-23T14:51:34;17.40;99.90
23207;DHT22;11773;52.570;13.052;2023-03-23T14:54:07;17.40;99.90
23207;DHT22;11773;52.570;13.052;2023-03-23T14:56:36;17.40;99.90
23207;DHT22;11773;52.570;13.052;2023-03-23T14:59:06;17.40;99.90
23207;DHT22;11773;52.570;13.052;2023-03-23T15:01:37;17.40;99.90
23207;DHT22;11773;52.570;13.052;2023-03-23T15:04:13;17.40;99.90
23207;DHT22;11773;52.570;13.052;2023-03-23T15:06:55;17.40;99.90
23207;DHT22;11773;52.570;13.052;2023-03-23T15:09:21;17.40;99.90
23207;DHT22;11773;52.570;13.052;2023-03-23T15:12:00;17.50;99.90
23207;DHT22;11773;52.570;13.052;2023-03-23T15:14:30;17.50;99.90
23207;DHT22;11773;52.570;13.052;2023-03-23T15:17:01;17.40;99.90
23207;DHT22;11773;52.570;13.052;2023-03-23T15:19:34;17.40;99.90
23207;DHT22;11773;52.570;13.052;2023-03-23T15:22:13;17.50;99.90
23207;DHT22;11773;52.570;13.052;2023-03-23T15:25:18;17.40;99.90
23207;DHT22;11773;52.570;13.052;2023-03-23T15:27:58;17.30;99.90
23207;DHT22;11773;52.570;13.052;2023-03-23T15:30:55;17.20;99.90
23207;DHT22;11773;52.570;13.052;2023-03-23T15:33:21;17.10;99.90
23207;DHT22;11773;52.570;13.052;2023-03-23T15:35:53;17.00;99.90
23207;DHT22;11773;52.570;13.052;2023-03-23T15:38:25;17.00;99.90
23207;DHT22;11773;52.570;13.052;2023-03-23T15:40:58;17.10;99.90
23207;DHT22;11773;52.570;13.052;2023-03-23T15:43:34;17.00;99.90
23207;DHT22;11773;52.570;13.052;2023-03-23T15:48:49;16.90;99.90
23207;DHT22;11773;52.570;13.052;2023-03-23T15:51:30;16.80;99.90
23207;DHT22;11773;52.570;13.052;2023-03-23T15:53:59;16.80;99.90
23207;DHT22;11773;52.570;13.052;2023-03-23T15:56:28;16.70;99.90
23207;DHT22;11773;52.570;13.052;2023-03-23T15:58:58;16.80;99.90
23207;DHT22;11773;52.570;13.052;2023-03-23T16:01:28;16.70;99.90
23207;DHT22;11773;52.570;13.052;2023-03-23T16:04:03;16.40;99.90
23207;DHT22;11773;52.570;13.052;2023-03-23T16:06:46;16.30;99.90
23207;DHT22;11773;52.570;13.052;2023-03-23T16:09:18;16.20;99.90
23207;DHT22;11773;52.570;13.052;2023-03-23T16:11:48;16.20;99.90
23207;DHT22;11773;52.570;13.052;2023-03-23T16:14:17;16.10;99.90
23207;DHT22;11773;52.570;13.052;2023-03-23T16:16:49;15.90;99.90
23207;DHT22;11773;52.570;13.052;2023-03-23T16:19:19;15.80;99.90
23207;DHT22;11773;52.570;13.052;2023-03-23T16:21:51;15.80;99.90
23207;DHT22;11773;52.570;13.052;2023-03-23T16:24:20;15.80;99.90
23207;DHT22;11773;52.570;13.052;2023-03-23T16:26:50;15.60;99.90
23207;DHT22;11773;52.570;13.052;2023-03-23T16:29:20;15.80;99.90
23207;DHT22;11773;52.570;13.052;2023-03-23T16:31:51;15.70;99.90
23207;DHT22;11773;52.570;13.052;2023-03-23T16:34:20;15.60;99.90
23207;DHT22;11773;52.570;13.052;2023-03-23T16:36:50;15.70;99.90
23207;DHT22;11773;52.570;13.052;2023-03-23T16:39:20;15.50;99.90
23207;DHT22;11773;52.570;13.052;2023-03-23T16:41:50;15.40;99.90
23207;DHT22;11773;52.570;13.052;2023-03-23T16:44:19;15.40;99.90
23207;DHT22;11773;52.570;13.052;2023-03-23T16:46:49;15.40;99.90
23207;DHT22;11773;52.570;13.052;2023-03-23T16:49:18;15.30;99.90
23207;DHT22;11773;52.570;13.052;2023-03-23T16:51:48;15.40;99.90
23207;DHT22;11773;52.570;13.052;2023-03-23T16:54:17;15.40;99.90
23207;DHT22;11773;52.570;13.052;2023-03-23T16:56:47;15.40;99.90
23207;DHT22;11773;52.570;13.052;2023-03-23T16:59:16;15.40;99.90
23207;DHT22;11773;52.570;13.052;2023-03-23T17:01:46;15.30;99.90
23207;DHT22;11773;52.570;13.052;2023-03-23T17:04:16;15.20;99.90
23207;DHT22;11773;52.570;13.052;2023-03-23T17:06:45;15.20;99.90
23207;DHT22;11773;52.570;13.052;2023-03-23T17:09:15;15.20;99.90
23207;DHT22;11773;52.570;13.052;2023-03-23T17:11:45;15.10;99.90
23207;DHT22;11773;52.570;13.052;2023-03-23T17:14:14;15.20;99.90
23207;DHT22;11773;52.570;13.052;2023-03-23T17:16:44;15.10;99.90
23207;DHT22;11773;52.570;13.052;2023-03-23T17:19:13;15.10;99.90
23207;DHT22;11773;52.570;13.052;2023-03-23T17:21:43;15.10;99.90